sensor_id;sensor_type;location;lat;lon;timestamp;pressure;altitude;pressure_sealevel;temperature;humidity
39275;BME280;24980;48.874;2.332;2023-03-31T00:02:11;100063.61;;;21.69;56.41
39275;BME280;24980;48.874;2.332;2023-03-31T00:04:42;100055.60;;;21.69;56.42
39275;BME280;24980;48.874;2.332;2023-03-31T00:07:12;100069.62;;;21.68;56.43
39275;BME280;24980;48.874;2.332;2023-03-31T00:09:42;100071.52;;;21.67;56.43
39275;BME280;24980;48.874;2.332;2023-03-31T00:12:13;100064.86;;;21.66;56.44
39275;BME280;24980;48.874;2.332;2023-03-31T00:14:42;100065.22;;;21.65;56.44
39275;BME280;24980;48.874;2.332;2023-03-31T00:17:13;100057.05;;;21.65;56.44
39275;BME280;24980;48.874;2.332;2023-03-31T00:19:43;99996.62;;;21.63;56.44
39275;BME280;24980;48.874;2.332;2023-03-31T00:22:13;99984.50;;;21.62;56.43
39275;BME280;24980;48.874;2.332;2023-03-31T00:24:43;99982.91;;;21.62;56.46
39275;BME280;24980;48.874;2.332;2023-03-31T00:27:14;99954.34;;;21.61;56.46
39275;BME280;24980;48.874;2.332;2023-03-31T00:29:44;99938.11;;;21.60;56.48
39275;BME280;24980;48.874;2.332;2023-03-31T00:32:14;99935.09;;;21.59;56.50
39275;BME280;24980;48.874;2.332;2023-03-31T00:34:45;99929.18;;;21.56;56.51
39275;BME280;24980;48.874;2.332;2023-03-31T00:37:15;99919.66;;;21.56;56.51
39275;BME280;24980;48.874;2.332;2023-03-31T00:39:45;99907.44;;;21.56;56.51
39275;BME280;24980;48.874;2.332;2023-03-31T00:42:15;99906.19;;;21.54;56.51
39275;BME280;24980;48.874;2.332;2023-03-31T00:47:18;99908.47;;;21.51;56.51
39275;BME280;24980;48.874;2.332;2023-03-31T00:49:49;99912.14;;;21.50;56.53
39275;BME280;24980;48.874;2.332;2023-03-31T00:52:29;99898.23;;;21.50;56.53
39275;BME280;24980;48.874;2.332;2023-03-31T00:54:52;99885.95;;;21.49;56.54
39275;BME280;24980;48.874;2.332;2023-03-31T00:57:17;99875.89;;;21.47;56.55
39275;BME280;24980;48.874;2.332;2023-03-31T00:59:54;99882.73;;;21.47;56.56
39275;BME280;24980;48.874;2.332;2023-03-31T01:02:18;99873.38;;;21.46;56.56
39275;BME280;24980;48.874;2.332;2023-03-31T01:04:55;99873.89;;;21.46;56.56
39275;BME280;24980;48.874;2.332;2023-03-31T01:09:52;99865.27;;;21.44;56.56
39275;BME280;24980;48.874;2.332;2023-03-31T01:12:21;99861.23;;;21.43;56.57
39275;BME280;24980;48.874;2.332;2023-03-31T01:14:51;99857.78;;;21.43;56.58
39275;BME280;24980;48.874;2.332;2023-03-31T01:17:21;99846.33;;;21.42;56.59
39275;BME280;24980;48.874;2.332;2023-03-31T01:20:28;99854.76;;;21.42;56.61
39275;BME280;24980;48.874;2.332;2023-03-31T01:22:36;99847.73;;;21.41;56.62
39275;BME280;24980;48.874;2.332;2023-03-31T01:38:01;99816.16;;;21.36;56.69
39275;BME280;24980;48.874;2.332;2023-03-31T01:42:43;99816.13;;;21.35;56.73
39275;BME280;24980;48.874;2.332;2023-03-31T01:45:03;99804.88;;;21.33;56.74
39275;BME280;24980;48.874;2.332;2023-03-31T01:47:33;99797.62;;;21.33;56.75
39275;BME280;24980;48.874;2.332;2023-03-31T01:50:04;99794.39;;;21.31;56.76
39275;BME280;24980;48.874;2.332;2023-03-31T01:52:48;99783.36;;;21.31;56.78
39275;BME280;24980;48.874;2.332;2023-03-31T01:55:14;99775.87;;;21.30;56.81
39275;BME280;24980;48.874;2.332;2023-03-31T01:57:40;99771.09;;;21.29;56.83
39275;BME280;24980;48.874;2.332;2023-03-31T02:00:10;99758.83;;;21.28;56.84
39275;BME280;24980;48.874;2.332;2023-03-31T02:02:36;99761.29;;;21.27;56.86
39275;BME280;24980;48.874;2.332;2023-03-31T02:05:08;99768.80;;;21.27;56.89
39275;BME280;24980;48.874;2.332;2023-03-31T02:07:42;99764.18;;;21.26;56.90
39275;BME280;24980;48.874;2.332;2023-03-31T02:10:16;99750.08;;;21.25;56.91
39275;BME280;24980;48.874;2.332;2023-03-31T02:12:37;99739.80;;;21.25;56.94
39275;BME280;24980;48.874;2.332;2023-03-31T02:15:07;99738.72;;;21.23;56.95
39275;BME280;24980;48.874;2.332;2023-03-31T02:17:37;99735.53;;;21.23;56.95
39275;BME280;24980;48.874;2.332;2023-03-31T02:20:08;99730.20;;;21.21;56.96
39275;BME280;24980;48.874;2.332;2023-03-31T02:22:38;99733.39;;;21.21;56.97
39275;BME280;24980;48.874;2.332;2023-03-31T02:25:09;99733.08;;;21.20;56.98
39275;BME280;24980;48.874;2.332;2023-03-31T02:27:42;99729.03;;;21.20;56.97
39275;BME280;24980;48.874;2.332;2023-03-31T02:30:08;99725.93;;;21.20;56.98
39275;BME280;24980;48.874;2.332;2023-03-31T02:32:40;99721.18;;;21.18;56.99
39275;BME280;24980;48.874;2.332;2023-03-31T02:35:11;99713.86;;;21.18;57.00
39275;BME280;24980;48.874;2.332;2023-03-31T02:37:40;99701.16;;;21.17;57.00
39275;BME280;24980;48.874;2.332;2023-03-31T02:40:18;99697.28;;;21.16;57.01
39275;BME280;24980;48.874;2.332;2023-03-31T02:42:40;99690.94;;;21.15;57.02
39275;BME280;24980;48.874;2.332;2023-03-31T02:45:48;99683.62;;;21.14;57.03
39275;BME280;24980;48.874;2.332;2023-03-31T02:47:41;99675.47;;;21.13;57.06
39275;BME280;24980;48.874;2.332;2023-03-31T02:50:12;99672.44;;;21.13;57.06
39275;BME280;24980;48.874;2.332;2023-03-31T02:55:36;99645.52;;;21.12;57.08
39275;BME280;24980;48.874;2.332;2023-03-31T03:05:21;99642.09;;;21.12;57.13
39275;BME280;24980;48.874;2.332;2023-03-31T03:10:32;99630.83;;;21.10;57.15
39275;BME280;24980;48.874;2.332;2023-03-31T03:13:00;99627.12;;;21.10;57.16
39275;BME280;24980;48.874;2.332;2023-03-31T03:15:29;99628.35;;;21.09;57.18
39275;BME280;24980;48.874;2.332;2023-03-31T03:17:48;99631.27;;;21.09;57.20
39275;BME280;24980;48.874;2.332;2023-03-31T03:20:19;99637.69;;;21.08;57.21
39275;BME280;24980;48.874;2.332;2023-03-31T03:22:48;99640.98;;;21.08;57.23
39275;BME280;24980;48.874;2.332;2023-03-31T03:25:18;99632.89;;;21.08;57.26
39275;BME280;24980;48.874;2.332;2023-03-31T03:27:48;99626.08;;;21.07;57.27
39275;BME280;24980;48.874;2.332;2023-03-31T03:30:18;99630.22;;;21.07;57.28
39275;BME280;24980;48.874;2.332;2023-03-31T03:32:48;99613.58;;;21.06;57.30
39275;BME280;24980;48.874;2.332;2023-03-31T03:35:18;99610.64;;;21.06;57.32
39275;BME280;24980;48.874;2.332;2023-03-31T03:37:48;99607.44;;;21.06;57.34
39275;BME280;24980;48.874;2.332;2023-03-31T03:40:18;99610.80;;;21.06;57.36
39275;BME280;24980;48.874;2.332;2023-03-31T03:42:48;99605.34;;;21.05;57.39
39275;BME280;24980;48.874;2.332;2023-03-31T03:45:18;99606.95;;;21.05;57.42
39275;BME280;24980;48.874;2.332;2023-03-31T03:47:54;99608.89;;;21.04;57.44
39275;BME280;24980;48.874;2.332;2023-03-31T03:50:19;99587.77;;;21.03;57.46
39275;BME280;24980;48.874;2.332;2023-03-31T03:52:49;99590.89;;;21.03;57.48
39275;BME280;24980;48.874;2.332;2023-03-31T03:55:20;99594.47;;;21.02;57.51
39275;BME280;24980;48.874;2.332;2023-03-31T03:57:50;99591.79;;;21.02;57.53
39275;BME280;24980;48.874;2.332;2023-03-31T04:00:19;99582.89;;;21.00;57.56
39275;BME280;24980;48.874;2.332;2023-03-31T04:02:50;99580.02;;;21.00;57.58
39275;BME280;24980;48.874;2.332;2023-03-31T04:05:20;99575.32;;;21.00;57.60
39275;BME280;24980;48.874;2.332;2023-03-31T04:07:51;99575.62;;;20.99;57.61
39275;BME280;24980;48.874;2.332;2023-03-31T04:10:21;99568.80;;;20.99;57.61
39275;BME280;24980;48.874;2.332;2023-03-31T04:12:51;99559.38;;;20.98;57.63
39275;BME280;24980;48.874;2.332;2023-03-31T04:15:21;99543.73;;;20.97;57.66
39275;BME280;24980;48.874;2.332;2023-03-31T04:17:51;99550.31;;;20.97;57.68
39275;BME280;24980;48.874;2.332;2023-03-31T04:20:21;99555.41;;;20.96;57.69
39275;BME280;24980;48.874;2.332;2023-03-31T04:22:58;99571.09;;;20.95;57.71
39275;BME280;24980;48.874;2.332;2023-03-31T04:25:27;99566.46;;;20.95;57.73
39275;BME280;24980;48.874;2.332;2023-03-31T04:27:52;99549.62;;;20.95;57.73
39275;BME280;24980;48.874;2.332;2023-03-31T04:30:25;99560.25;;;20.94;57.74
39275;BME280;24980;48.874;2.332;2023-03-31T04:32:56;99537.66;;;20.93;57.74
39275;BME280;24980;48.874;2.332;2023-03-31T04:35:25;99547.94;;;20.92;57.75
39275;BME280;24980;48.874;2.332;2023-03-31T04:37:54;99551.66;;;20.92;57.75
39275;BME280;24980;48.874;2.332;2023-03-31T04:40:24;99548.80;;;20.91;57.76
39275;BME280;24980;48.874;2.332;2023-03-31T04:42:55;99530.12;;;20.90;57.75
39275;BME280;24980;48.874;2.332;2023-03-31T04:45:25;99534.08;;;20.91;57.76
39275;BME280;24980;48.874;2.332;2023-03-31T04:47:55;99531.98;;;20.90;57.76
39275;BME280;24980;48.874;2.332;2023-03-31T04:50:25;99547.27;;;20.89;57.78
39275;BME280;24980;48.874;2.332;2023-03-31T04:52:55;99540.96;;;20.89;57.78
39275;BME280;24980;48.874;2.332;2023-03-31T04:55:27;99553.52;;;20.89;57.79
39275;BME280;24980;48.874;2.332;2023-03-31T04:57:56;99543.83;;;20.89;57.80
39275;BME280;24980;48.874;2.332;2023-03-31T05:03:03;99539.98;;;20.87;57.82
39275;BME280;24980;48.874;2.332;2023-03-31T05:05:27;99537.84;;;20.86;57.84
39275;BME280;24980;48.874;2.332;2023-03-31T05:07:57;99537.85;;;20.86;57.86
39275;BME280;24980;48.874;2.332;2023-03-31T05:10:29;99536.85;;;20.85;57.87
39275;BME280;24980;48.874;2.332;2023-03-31T05:12:58;99528.27;;;20.85;57.87
39275;BME280;24980;48.874;2.332;2023-03-31T05:15:28;99540.22;;;20.85;57.89
39275;BME280;24980;48.874;2.332;2023-03-31T05:17:59;99533.50;;;20.84;57.91
39275;BME280;24980;48.874;2.332;2023-03-31T05:20:29;99528.41;;;20.84;57.93
39275;BME280;24980;48.874;2.332;2023-03-31T05:23:01;99522.36;;;20.83;57.94
39275;BME280;24980;48.874;2.332;2023-03-31T05:25:29;99515.89;;;20.82;57.95
39275;BME280;24980;48.874;2.332;2023-03-31T05:28:00;99517.92;;;20.82;57.97
39275;BME280;24980;48.874;2.332;2023-03-31T05:30:30;99524.24;;;20.82;57.99
39275;BME280;24980;48.874;2.332;2023-03-31T05:33:00;99524.17;;;20.81;57.99
39275;BME280;24980;48.874;2.332;2023-03-31T05:35:30;99515.50;;;20.81;58.00
39275;BME280;24980;48.874;2.332;2023-03-31T05:38:03;99519.55;;;20.81;58.02
39275;BME280;24980;48.874;2.332;2023-03-31T05:40:34;99516.73;;;20.80;58.03
39275;BME280;24980;48.874;2.332;2023-03-31T05:43:02;99508.06;;;20.80;58.04
39275;BME280;24980;48.874;2.332;2023-03-31T05:45:32;99511.95;;;20.79;58.05
39275;BME280;24980;48.874;2.332;2023-03-31T05:48:02;99519.20;;;20.78;58.06
39275;BME280;24980;48.874;2.332;2023-03-31T05:50:34;99505.62;;;20.77;58.07
39275;BME280;24980;48.874;2.332;2023-03-31T05:53:03;99510.00;;;20.77;58.08
39275;BME280;24980;48.874;2.332;2023-03-31T05:55:35;99513.75;;;20.77;58.09
39275;BME280;24980;48.874;2.332;2023-03-31T05:58:03;99520.60;;;20.77;58.10
39275;BME280;24980;48.874;2.332;2023-03-31T06:00:33;99520.88;;;20.76;58.12
39275;BME280;24980;48.874;2.332;2023-03-31T06:03:03;99521.03;;;20.77;58.13
39275;BME280;24980;48.874;2.332;2023-03-31T06:05:33;99525.17;;;20.76;58.13
39275;BME280;24980;48.874;2.332;2023-03-31T06:08:04;99525.44;;;20.75;58.15
39275;BME280;24980;48.874;2.332;2023-03-31T06:10:34;99513.57;;;20.75;58.16
39275;BME280;24980;48.874;2.332;2023-03-31T06:13:04;99519.06;;;20.74;58.16
39275;BME280;24980;48.874;2.332;2023-03-31T06:15:35;99515.23;;;20.76;58.15
39275;BME280;24980;48.874;2.332;2023-03-31T06:18:07;99508.48;;;20.80;58.14
39275;BME280;24980;48.874;2.332;2023-03-31T06:20:38;99510.25;;;20.83;58.15
39275;BME280;24980;48.874;2.332;2023-03-31T06:23:06;99512.86;;;20.82;58.18
39275;BME280;24980;48.874;2.332;2023-03-31T06:25:42;99501.87;;;20.81;58.25
39275;BME280;24980;48.874;2.332;2023-03-31T06:28:06;99514.54;;;20.80;58.33
39275;BME280;24980;48.874;2.332;2023-03-31T06:30:42;99507.64;;;20.80;58.41
39275;BME280;24980;48.874;2.332;2023-03-31T06:33:07;99513.45;;;20.80;58.50
39275;BME280;24980;48.874;2.332;2023-03-31T06:35:39;99511.52;;;20.80;58.57
39275;BME280;24980;48.874;2.332;2023-03-31T06:38:07;99510.45;;;20.81;58.59
39275;BME280;24980;48.874;2.332;2023-03-31T06:40:37;99509.33;;;20.80;58.60
39275;BME280;24980;48.874;2.332;2023-03-31T06:43:07;99519.94;;;20.80;58.60
39275;BME280;24980;48.874;2.332;2023-03-31T06:45:38;99519.12;;;20.78;58.59
39275;BME280;24980;48.874;2.332;2023-03-31T06:48:08;99527.97;;;20.78;58.58
39275;BME280;24980;48.874;2.332;2023-03-31T06:50:40;99521.70;;;20.77;58.57
39275;BME280;24980;48.874;2.332;2023-03-31T06:53:09;99522.49;;;20.78;58.56
39275;BME280;24980;48.874;2.332;2023-03-31T06:55:40;99530.11;;;20.80;58.52
39275;BME280;24980;48.874;2.332;2023-03-31T06:58:10;99516.81;;;20.83;58.49
39275;BME280;24980;48.874;2.332;2023-03-31T07:00:40;99518.02;;;20.84;58.46
39275;BME280;24980;48.874;2.332;2023-03-31T07:03:10;99507.22;;;20.85;58.45
39275;BME280;24980;48.874;2.332;2023-03-31T07:05:42;99508.05;;;20.86;58.43
39275;BME280;24980;48.874;2.332;2023-03-31T07:08:11;99515.20;;;20.86;58.43
39275;BME280;24980;48.874;2.332;2023-03-31T07:10:41;99505.00;;;20.86;58.42
39275;BME280;24980;48.874;2.332;2023-03-31T07:13:16;99509.91;;;20.85;58.44
39275;BME280;24980;48.874;2.332;2023-03-31T07:15:43;99510.66;;;20.83;58.47
39275;BME280;24980;48.874;2.332;2023-03-31T07:18:12;99513.14;;;20.81;58.50
39275;BME280;24980;48.874;2.332;2023-03-31T07:20:43;99512.38;;;20.78;58.53
39275;BME280;24980;48.874;2.332;2023-03-31T07:23:13;99505.97;;;20.77;58.56
39275;BME280;24980;48.874;2.332;2023-03-31T07:25:43;99515.25;;;20.76;58.58
39275;BME280;24980;48.874;2.332;2023-03-31T07:28:13;99504.66;;;20.75;58.58
39275;BME280;24980;48.874;2.332;2023-03-31T07:30:43;99515.73;;;20.76;58.57
39275;BME280;24980;48.874;2.332;2023-03-31T07:33:13;99525.08;;;20.76;58.57
39275;BME280;24980;48.874;2.332;2023-03-31T07:35:43;99519.79;;;20.78;58.57
39275;BME280;24980;48.874;2.332;2023-03-31T07:38:14;99509.03;;;20.77;58.56
39275;BME280;24980;48.874;2.332;2023-03-31T07:40:46;99516.09;;;20.78;58.59
39275;BME280;24980;48.874;2.332;2023-03-31T07:43:14;99516.99;;;20.79;58.59
39275;BME280;24980;48.874;2.332;2023-03-31T07:45:44;99519.86;;;20.79;58.61
39275;BME280;24980;48.874;2.332;2023-03-31T07:48:14;99514.73;;;20.78;58.63
39275;BME280;24980;48.874;2.332;2023-03-31T07:50:44;99536.94;;;20.77;58.66
39275;BME280;24980;48.874;2.332;2023-03-31T07:53:14;99534.27;;;20.76;58.69
39275;BME280;24980;48.874;2.332;2023-03-31T07:55:45;99512.66;;;20.74;58.70
39275;BME280;24980;48.874;2.332;2023-03-31T07:58:15;99526.94;;;20.74;58.74
39275;BME280;24980;48.874;2.332;2023-03-31T08:00:45;99525.72;;;20.69;58.74
39275;BME280;24980;48.874;2.332;2023-03-31T08:03:15;99521.50;;;20.71;58.78
39275;BME280;24980;48.874;2.332;2023-03-31T08:05:45;99526.28;;;20.70;58.80
39275;BME280;24980;48.874;2.332;2023-03-31T08:08:15;99524.03;;;20.69;58.81
39275;BME280;24980;48.874;2.332;2023-03-31T08:10:45;99521.69;;;20.68;58.83
39275;BME280;24980;48.874;2.332;2023-03-31T08:13:15;99526.31;;;20.68;58.85
39275;BME280;24980;48.874;2.332;2023-03-31T08:15:45;99524.09;;;20.67;58.85
39275;BME280;24980;48.874;2.332;2023-03-31T08:18:15;99530.94;;;20.66;58.87
39275;BME280;24980;48.874;2.332;2023-03-31T08:20:45;99509.99;;;20.65;58.86
39275;BME280;24980;48.874;2.332;2023-03-31T08:23:16;99528.09;;;20.65;58.88
39275;BME280;24980;48.874;2.332;2023-03-31T08:25:46;99519.05;;;20.64;58.90
39275;BME280;24980;48.874;2.332;2023-03-31T08:28:16;99524.35;;;20.64;58.94
39275;BME280;24980;48.874;2.332;2023-03-31T08:30:49;99530.84;;;20.64;58.95
39275;BME280;24980;48.874;2.332;2023-03-31T08:33:16;99526.66;;;20.62;58.96
39275;BME280;24980;48.874;2.332;2023-03-31T08:35:46;99518.83;;;20.63;58.97
39275;BME280;24980;48.874;2.332;2023-03-31T08:38:19;99521.27;;;20.62;58.97
39275;BME280;24980;48.874;2.332;2023-03-31T08:40:47;99522.53;;;20.63;58.97
39275;BME280;24980;48.874;2.332;2023-03-31T08:43:24;99518.91;;;20.62;58.98
39275;BME280;24980;48.874;2.332;2023-03-31T08:45:48;99521.20;;;20.62;58.98
39275;BME280;24980;48.874;2.332;2023-03-31T08:48:30;99515.18;;;20.61;58.98
39275;BME280;24980;48.874;2.332;2023-03-31T08:50:52;99508.95;;;20.61;58.99
39275;BME280;24980;48.874;2.332;2023-03-31T08:53:25;99519.14;;;20.61;58.99
39275;BME280;24980;48.874;2.332;2023-03-31T08:55:54;99521.19;;;20.60;59.01
39275;BME280;24980;48.874;2.332;2023-03-31T09:01:08;99509.25;;;20.59;59.00
39275;BME280;24980;48.874;2.332;2023-03-31T09:03:28;99513.12;;;20.58;58.99
39275;BME280;24980;48.874;2.332;2023-03-31T09:06:11;99511.16;;;20.57;58.98
39275;BME280;24980;48.874;2.332;2023-03-31T09:08:37;99506.38;;;20.57;58.99
39275;BME280;24980;48.874;2.332;2023-03-31T09:10:58;99501.31;;;20.57;58.99
39275;BME280;24980;48.874;2.332;2023-03-31T09:13:54;99506.91;;;20.56;59.00
39275;BME280;24980;48.874;2.332;2023-03-31T09:18:36;99499.05;;;20.55;59.00
39275;BME280;24980;48.874;2.332;2023-03-31T09:21:21;99507.80;;;20.55;58.99
39275;BME280;24980;48.874;2.332;2023-03-31T09:23:35;99501.58;;;20.54;58.99
39275;BME280;24980;48.874;2.332;2023-03-31T09:26:02;99511.18;;;20.54;59.00
39275;BME280;24980;48.874;2.332;2023-03-31T09:28:40;99505.80;;;20.54;58.98
39275;BME280;24980;48.874;2.332;2023-03-31T09:31:02;99515.81;;;20.53;58.97
39275;BME280;24980;48.874;2.332;2023-03-31T09:33:30;99515.91;;;20.53;58.94
39275;BME280;24980;48.874;2.332;2023-03-31T09:36:01;99521.38;;;20.53;58.92
39275;BME280;24980;48.874;2.332;2023-03-31T09:38:31;99529.44;;;20.54;58.89
39275;BME280;24980;48.874;2.332;2023-03-31T09:41:02;99512.36;;;20.54;58.87
39275;BME280;24980;48.874;2.332;2023-03-31T09:43:32;99504.88;;;20.53;58.84
39275;BME280;24980;48.874;2.332;2023-03-31T09:46:25;99516.14;;;20.54;58.83
39275;BME280;24980;48.874;2.332;2023-03-31T09:48:34;99516.30;;;20.54;58.82
39275;BME280;24980;48.874;2.332;2023-03-31T09:51:07;99497.62;;;20.54;58.83
39275;BME280;24980;48.874;2.332;2023-03-31T09:53:57;99509.15;;;20.54;58.86
39275;BME280;24980;48.874;2.332;2023-03-31T09:56:07;99496.62;;;20.53;58.85
39275;BME280;24980;48.874;2.332;2023-03-31T09:58:43;99514.07;;;20.52;58.89
39275;BME280;24980;48.874;2.332;2023-03-31T10:01:10;99502.34;;;20.51;58.90
39275;BME280;24980;48.874;2.332;2023-03-31T10:03:49;99493.17;;;20.51;58.91
39275;BME280;24980;48.874;2.332;2023-03-31T10:06:10;99495.34;;;20.51;58.92
39275;BME280;24980;48.874;2.332;2023-03-31T10:11:11;99494.84;;;20.51;58.93
39275;BME280;24980;48.874;2.332;2023-03-31T10:14:04;99495.86;;;20.51;58.94
39275;BME280;24980;48.874;2.332;2023-03-31T10:16:13;99482.39;;;20.51;58.95
39275;BME280;24980;48.874;2.332;2023-03-31T10:18:42;99494.09;;;20.50;58.97
39275;BME280;24980;48.874;2.332;2023-03-31T10:21:26;99480.71;;;20.51;58.98
39275;BME280;24980;48.874;2.332;2023-03-31T10:23:46;99489.90;;;20.50;58.99
39275;BME280;24980;48.874;2.332;2023-03-31T10:26:18;99503.72;;;20.49;59.02
39275;BME280;24980;48.874;2.332;2023-03-31T10:28:43;99495.73;;;20.49;59.02
39275;BME280;24980;48.874;2.332;2023-03-31T10:31:15;99486.39;;;20.48;59.02
39275;BME280;24980;48.874;2.332;2023-03-31T10:33:47;99484.79;;;20.49;59.02
39275;BME280;24980;48.874;2.332;2023-03-31T10:36:21;99489.04;;;20.48;59.03
39275;BME280;24980;48.874;2.332;2023-03-31T10:38:47;99482.91;;;20.47;59.01
39275;BME280;24980;48.874;2.332;2023-03-31T10:41:21;99489.09;;;20.46;59.01
39275;BME280;24980;48.874;2.332;2023-03-31T10:43:51;99481.68;;;20.46;59.01
39275;BME280;24980;48.874;2.332;2023-03-31T10:46:18;99490.67;;;20.46;58.99
39275;BME280;24980;48.874;2.332;2023-03-31T10:51:19;99480.50;;;20.46;58.98
39275;BME280;24980;48.874;2.332;2023-03-31T10:53:53;99486.98;;;20.45;58.98
39275;BME280;24980;48.874;2.332;2023-03-31T10:56:33;99483.92;;;20.45;58.97
39275;BME280;24980;48.874;2.332;2023-03-31T11:01:53;99469.04;;;20.44;58.93
39275;BME280;24980;48.874;2.332;2023-03-31T11:11:41;99490.77;;;20.43;58.83
39275;BME280;24980;48.874;2.332;2023-03-31T11:14:00;99487.66;;;20.43;58.80
39275;BME280;24980;48.874;2.332;2023-03-31T11:16:52;99497.23;;;20.44;58.76
39275;BME280;24980;48.874;2.332;2023-03-31T11:19:21;99500.52;;;20.44;58.74
39275;BME280;24980;48.874;2.332;2023-03-31T11:21:45;99485.37;;;20.44;58.74
39275;BME280;24980;48.874;2.332;2023-03-31T11:24:23;99495.38;;;20.44;58.74
39275;BME280;24980;48.874;2.332;2023-03-31T11:34:10;99487.33;;;20.42;58.73
39275;BME280;24980;48.874;2.332;2023-03-31T11:41:51;99462.88;;;20.42;58.66
39275;BME280;24980;48.874;2.332;2023-03-31T11:44:04;99463.94;;;20.42;58.63
39275;BME280;24980;48.874;2.332;2023-03-31T11:49:03;99456.86;;;20.43;58.58
39275;BME280;24980;48.874;2.332;2023-03-31T11:54:03;99460.03;;;20.44;58.56
39275;BME280;24980;48.874;2.332;2023-03-31T11:56:37;99460.19;;;20.45;58.59
39275;BME280;24980;48.874;2.332;2023-03-31T11:59:06;99466.62;;;20.45;58.61
39275;BME280;24980;48.874;2.332;2023-03-31T12:04:17;99456.31;;;20.48;58.71
39275;BME280;24980;48.874;2.332;2023-03-31T12:06:40;99450.42;;;20.47;58.76
39275;BME280;24980;48.874;2.332;2023-03-31T12:09:29;99454.80;;;20.47;58.78
39275;BME280;24980;48.874;2.332;2023-03-31T12:12:06;99455.14;;;20.47;58.77
39275;BME280;24980;48.874;2.332;2023-03-31T12:16:42;99463.72;;;20.47;58.69
39275;BME280;24980;48.874;2.332;2023-03-31T12:19:19;99464.66;;;20.47;58.66
39275;BME280;24980;48.874;2.332;2023-03-31T12:21:40;99454.75;;;20.46;58.62
39275;BME280;24980;48.874;2.332;2023-03-31T12:24:13;99459.63;;;20.46;58.59
39275;BME280;24980;48.874;2.332;2023-03-31T12:26:58;99459.95;;;20.47;58.56
39275;BME280;24980;48.874;2.332;2023-03-31T12:29:33;99469.97;;;20.49;58.51
39275;BME280;24980;48.874;2.332;2023-03-31T12:31:42;99462.86;;;20.51;58.47
39275;BME280;24980;48.874;2.332;2023-03-31T12:34:12;99442.95;;;20.52;58.44
39275;BME280;24980;48.874;2.332;2023-03-31T12:37:07;99469.95;;;20.53;58.41
39275;BME280;24980;48.874;2.332;2023-03-31T12:49:41;99452.95;;;20.58;58.32
39275;BME280;24980;48.874;2.332;2023-03-31T12:54:23;99449.80;;;20.58;58.27
39275;BME280;24980;48.874;2.332;2023-03-31T12:57:04;99451.48;;;20.58;58.24
39275;BME280;24980;48.874;2.332;2023-03-31T12:59:40;99453.26;;;20.57;58.19
39275;BME280;24980;48.874;2.332;2023-03-31T13:04:25;99454.61;;;20.56;58.11
39275;BME280;24980;48.874;2.332;2023-03-31T13:06:51;99449.17;;;20.55;58.08
39275;BME280;24980;48.874;2.332;2023-03-31T13:09:39;99457.25;;;20.55;58.07
39275;BME280;24980;48.874;2.332;2023-03-31T13:11:46;99466.33;;;20.56;58.04
39275;BME280;24980;48.874;2.332;2023-03-31T13:14:20;99476.48;;;20.55;58.02
39275;BME280;24980;48.874;2.332;2023-03-31T13:16:48;99462.78;;;20.54;58.00
39275;BME280;24980;48.874;2.332;2023-03-31T13:19:34;99460.28;;;20.52;57.99
39275;BME280;24980;48.874;2.332;2023-03-31T13:21:52;99460.29;;;20.52;57.99
39275;BME280;24980;48.874;2.332;2023-03-31T13:24:21;99458.58;;;20.51;58.00
39275;BME280;24980;48.874;2.332;2023-03-31T13:26:49;99452.20;;;20.49;57.99
39275;BME280;24980;48.874;2.332;2023-03-31T13:29:22;99439.75;;;20.49;58.00
39275;BME280;24980;48.874;2.332;2023-03-31T13:32:04;99432.83;;;20.50;57.97
39275;BME280;24980;48.874;2.332;2023-03-31T13:34:21;99424.39;;;20.52;57.93
39275;BME280;24980;48.874;2.332;2023-03-31T13:51:57;99477.52;;;20.50;57.75
39275;BME280;24980;48.874;2.332;2023-03-31T13:54:48;99476.11;;;20.49;57.74
39275;BME280;24980;48.874;2.332;2023-03-31T13:57:22;99472.31;;;20.50;57.72
39275;BME280;24980;48.874;2.332;2023-03-31T14:04:58;99522.24;;;20.43;57.70
39275;BME280;24980;48.874;2.332;2023-03-31T14:07:00;99541.17;;;20.44;57.67
39275;BME280;24980;48.874;2.332;2023-03-31T14:09:31;99494.22;;;20.43;57.64
39275;BME280;24980;48.874;2.332;2023-03-31T14:11:58;99501.02;;;20.44;57.62
39275;BME280;24980;48.874;2.332;2023-03-31T14:14:28;99507.11;;;20.45;57.61
39275;BME280;24980;48.874;2.332;2023-03-31T14:17:01;99502.05;;;20.46;57.61
39275;BME280;24980;48.874;2.332;2023-03-31T14:20:02;99491.60;;;20.46;57.63
39275;BME280;24980;48.874;2.332;2023-03-31T14:37:08;99472.85;;;20.71;57.90
39275;BME280;24980;48.874;2.332;2023-03-31T14:39:41;99467.58;;;20.73;58.01
39275;BME280;24980;48.874;2.332;2023-03-31T14:42:09;99480.14;;;20.75;58.11
39275;BME280;24980;48.874;2.332;2023-03-31T14:44:35;99487.62;;;20.76;58.17
39275;BME280;24980;48.874;2.332;2023-03-31T14:47:05;99481.23;;;20.75;58.23
39275;BME280;24980;48.874;2.332;2023-03-31T14:49:37;99490.52;;;20.74;58.27
39275;BME280;24980;48.874;2.332;2023-03-31T14:52:20;99480.73;;;20.73;58.28
39275;BME280;24980;48.874;2.332;2023-03-31T14:54:36;99473.69;;;20.71;58.29
39275;BME280;24980;48.874;2.332;2023-03-31T14:57:06;99488.30;;;20.71;58.29
39275;BME280;24980;48.874;2.332;2023-03-31T14:59:37;99485.95;;;20.70;58.25
39275;BME280;24980;48.874;2.332;2023-03-31T15:02:13;99492.98;;;20.68;58.23
39275;BME280;24980;48.874;2.332;2023-03-31T15:04:41;99485.15;;;20.65;58.20
39275;BME280;24980;48.874;2.332;2023-03-31T15:07:12;99496.67;;;20.63;58.19
39275;BME280;24980;48.874;2.332;2023-03-31T15:09:39;99497.95;;;20.65;58.20
39275;BME280;24980;48.874;2.332;2023-03-31T15:12:13;99518.62;;;20.67;58.26
39275;BME280;24980;48.874;2.332;2023-03-31T15:14:42;99510.62;;;20.70;58.40
39275;BME280;24980;48.874;2.332;2023-03-31T15:17:20;99525.77;;;20.73;58.57
39275;BME280;24980;48.874;2.332;2023-03-31T15:19:40;99527.36;;;20.76;58.79
39275;BME280;24980;48.874;2.332;2023-03-31T15:22:16;99523.55;;;20.80;59.01
39275;BME280;24980;48.874;2.332;2023-03-31T15:24:42;99525.92;;;20.82;59.24